Time,TemperatureF,DewpointF,PressureIn,WindDirection,WindDirectionDegrees,WindSpeedMPH,WindSpeedGustMPH,Humidity,HourlyPrecipIn,Conditions,Clouds,dailyrainin,SoftwareType,DateUTC
2013-01-18 00:02:00,19.0,14.0,-100.00,North,-999,-999.0,-999.0,80,-99.99,,,-99.99,,2013-01-18 08:02:00,
2013-01-18 00:11:00,21.0,14.0,-100.00,North,-999,-999.0,-999.0,74,-99.99,,,-99.99,,2013-01-18 08:11:00,
2013-01-18 00:22:00,21.0,14.0,-100.00,North,-999,-999.0,-999.0,74,-99.99,,,-99.99,,2013-01-18 08:22:00,
2013-01-18 00:32:00,21.0,14.0,-100.00,North,-999,-999.0,-999.0,74,-99.99,,,-99.99,,2013-01-18 08:32:00,
2013-01-18 00:42:00,21.0,17.0,-100.00,North,-999,-999.0,-999.0,85,-99.99,,,-99.99,,2013-01-18 08:42:00,
2013-01-18 00:53:00,21.0,17.0,-100.00,North,-999,-999.0,-999.0,85,-99.99,,,-99.99,,2013-01-18 08:53:00,
2013-01-18 01:02:00,19.0,16.0,-100.00,North,-999,-999.0,-999.0,87,-99.99,,,-99.99,,2013-01-18 09:02:00,
2013-01-18 01:12:00,19.0,16.0,-100.00,North,-999,-999.0,-999.0,87,-99.99,,,-99.99,,2013-01-18 09:12:00,
2013-01-18 01:22:00,19.0,16.0,-100.00,North,-999,-999.0,-999.0,87,-99.99,,,-99.99,,2013-01-18 09:22:00,
2013-01-18 01:32:00,18.0,16.0,-100.00,North,-999,-999.0,-999.0,91,-99.99,,,-99.99,,2013-01-18 09:32:00,
2013-01-18 01:42:00,20.0,15.0,-100.00,North,-999,-999.0,-999.0,80,-99.99,,,-99.99,,2013-01-18 09:42:00,
2013-01-18 01:52:00,20.0,15.0,-100.00,North,-999,-999.0,-999.0,80,-99.99,,,-99.99,,2013-01-18 09:52:00,
2013-01-18 02:02:00,19.0,16.0,-100.00,North,-999,-999.0,-999.0,87,-99.99,,,-99.99,,2013-01-18 10:02:00,
2013-01-18 02:12:00,18.0,-99.9,-100.00,North,-999,-999.0,-999.0,-999,-99.99,,,-99.99,,2013-01-18 10:12:00,
2013-01-18 02:22:00,17.0,16.0,-100.00,North,-999,-999.0,-999.0,94,-99.99,,,-99.99,,2013-01-18 10:22:00,
2013-01-18 02:32:00,17.0,15.0,-100.00,North,-999,-999.0,-999.0,92,-99.99,,,-99.99,,2013-01-18 10:32:00,
2013-01-18 02:42:00,17.0,15.0,-100.00,North,-999,-999.0,-999.0,92,-99.99,,,-99.99,,2013-01-18 10:42:00,
2013-01-18 02:52:00,18.0,13.0,-100.00,North,-999,-999.0,-999.0,81,-99.99,,,-99.99,,2013-01-18 10:52:00,
2013-01-18 03:02:00,18.0,13.0,-100.00,North,-999,-999.0,-999.0,81,-99.99,,,-99.99,,2013-01-18 11:02:00,
2013-01-18 03:12:00,18.0,13.0,-100.00,North,-999,-999.0,-999.0,81,-99.99,,,-99.99,,2013-01-18 11:12:00,
2013-01-18 03:22:00,17.0,15.0,-100.00,North,-999,-999.0,-999.0,89,-99.99,,,-99.99,,2013-01-18 11:22:00,
2013-01-18 03:32:00,17.0,15.0,-100.00,North,-999,-999.0,-999.0,89,-99.99,,,-99.99,,2013-01-18 11:32:00,
2013-01-18 03:42:00,16.0,13.0,-100.00,North,-999,-999.0,-999.0,89,-99.99,,,-99.99,,2013-01-18 11:42:00,
2013-01-18 03:52:00,16.0,13.0,-100.00,North,-999,-999.0,-999.0,89,-99.99,,,-99.99,,2013-01-18 11:52:00,
2013-01-18 04:02:00,16.0,13.0,-100.00,North,-999,-999.0,-999.0,89,-99.99,,,-99.99,,2013-01-18 12:02:00,
2013-01-18 04:12:00,16.0,13.0,-100.00,North,-999,-999.0,-999.0,85,-99.99,,,-99.99,,2013-01-18 12:12:00,
2013-01-18 04:22:00,17.0,13.0,-100.00,North,-999,-999.0,-999.0,85,-99.99,,,-99.99,,2013-01-18 12:22:00,
2013-01-18 04:32:00,17.0,13.0,-100.00,North,-999,-999.0,-999.0,85,-99.99,,,-99.99,,2013-01-18 12:32:00,
2013-01-18 04:42:00,16.0,13.0,-100.00,North,-999,-999.0,-999.0,86,-99.99,,,-99.99,,2013-01-18 12:42:00,
2013-01-18 04:52:00,16.0,13.0,-100.00,North,-999,-999.0,-999.0,86,-99.99,,,-99.99,,2013-01-18 12:52:00,
2013-01-18 05:23:00,17.0,-99.9,-100.00,North,-999,-999.0,-999.0,-999,-99.99,,,-99.99,,2013-01-18 13:23:00,
2013-01-18 05:33:00,17.0,12.0,-100.00,North,-999,-999.0,-999.0,79,-99.99,,,-99.99,,2013-01-18 13:33:00,
2013-01-18 05:42:00,17.0,12.0,-100.00,North,-999,-999.0,-999.0,79,-99.99,,,-99.99,,2013-01-18 13:42:00,
2013-01-18 05:52:00,17.0,12.0,-100.00,North,-999,-999.0,-999.0,79,-99.99,,,-99.99,,2013-01-18 13:52:00,
2013-01-18 06:03:00,17.0,12.0,-100.00,North,-999,-999.0,-999.0,79,-99.99,,,-99.99,,2013-01-18 14:03:00,
2013-01-18 06:12:00,17.0,12.0,-100.00,North,-999,-999.0,-999.0,79,-99.99,,,-99.99,,2013-01-18 14:12:00,
2013-01-18 06:23:00,-999.0,-99.9,-100.00,ENE,60,0.0,-999.0,-999,-99.99,,,-99.99,,2013-01-18 14:23:00,
2013-01-18 06:34:00,17.0,-99.9,-100.00,North,-999,-999.0,-999.0,-999,-99.99,,,-99.99,,2013-01-18 14:34:00,
2013-01-18 06:43:00,17.0,-99.9,-100.00,North,-999,-999.0,-999.0,-999,-99.99,,,-99.99,,2013-01-18 14:43:00,
2013-01-18 06:53:00,17.0,11.0,-100.00,North,-999,-999.0,-999.0,75,-99.99,,,-99.99,,2013-01-18 14:53:00,
2013-01-18 07:02:00,17.0,11.0,-100.00,North,-999,-999.0,-999.0,75,-99.99,,,-99.99,,2013-01-18 15:02:00,
2013-01-18 07:12:00,17.0,11.0,-100.00,North,-999,-999.0,-999.0,75,-99.99,,,-99.99,,2013-01-18 15:12:00,
2013-01-18 07:22:00,17.0,11.0,-100.00,North,-999,-999.0,-999.0,76,-99.99,,,-99.99,,2013-01-18 15:22:00,
2013-01-18 07:33:00,16.0,11.0,-100.00,North,-999,-999.0,-999.0,78,-99.99,,,-99.99,,2013-01-18 15:33:00,
2013-01-18 07:42:00,16.0,11.0,-100.00,North,-999,-999.0,-999.0,78,-99.99,,,-99.99,,2013-01-18 15:42:00,
2013-01-18 07:52:00,15.0,11.0,-100.00,North,-999,-999.0,-999.0,83,-99.99,,,-99.99,,2013-01-18 15:52:00,
2013-01-18 08:02:00,15.0,11.0,-100.00,North,-999,-999.0,-999.0,83,-99.99,,,-99.99,,2013-01-18 16:02:00,
2013-01-18 08:12:00,15.0,11.0,-100.00,North,-999,-999.0,-999.0,84,-99.99,,,-99.99,,2013-01-18 16:12:00,
2013-01-18 08:22:00,15.0,11.0,-100.00,North,-999,-999.0,-999.0,84,-99.99,,,-99.99,,2013-01-18 16:22:00,
2013-01-18 08:32:00,15.0,11.0,-100.00,North,-999,-999.0,-999.0,83,-99.99,,,-99.99,,2013-01-18 16:32:00,
2013-01-18 08:42:00,16.0,12.0,-100.00,North,-999,-999.0,-999.0,83,-99.99,,,-99.99,,2013-01-18 16:42:00,
2013-01-18 08:53:00,-999.0,-99.9,-100.00,ENE,60,0.0,-999.0,-999,-99.99,,,-99.99,,2013-01-18 16:53:00,
2013-01-18 09:33:00,16.0,11.0,-100.00,North,-999,-999.0,-999.0,81,-99.99,,,-99.99,,2013-01-18 17:33:00,
2013-01-18 10:12:00,22.0,15.0,-100.00,North,-999,-999.0,-999.0,74,-99.99,,,-99.99,,2013-01-18 18:12:00,
2013-01-18 10:23:00,22.0,15.0,-100.00,North,-999,-999.0,-999.0,74,-99.99,,,-99.99,,2013-01-18 18:23:00,
2013-01-18 10:33:00,24.0,15.0,-100.00,North,-999,-999.0,-999.0,67,-99.99,,,-99.99,,2013-01-18 18:33:00,
2013-01-18 10:43:00,28.0,21.0,-100.00,North,-999,-999.0,-999.0,73,-99.99,,,-99.99,,2013-01-18 18:43:00,
2013-01-18 10:53:00,33.0,26.0,-100.00,North,-999,-999.0,-999.0,75,-99.99,,,-99.99,,2013-01-18 18:53:00,
2013-01-18 11:02:00,33.0,26.0,-100.00,North,-999,-999.0,-999.0,75,-99.99,,,-99.99,,2013-01-18 19:02:00,
2013-01-18 11:22:00,37.0,26.0,-100.00,North,-999,-999.0,-999.0,65,-99.99,,,-99.99,,2013-01-18 19:22:00,
2013-01-18 11:33:00,-999.0,-99.9,-100.00,NNW,330,7.0,-999.0,-999,-99.99,,,-99.99,,2013-01-18 19:33:00,
2013-01-18 11:43:00,38.0,-99.9,-100.00,North,-999,-999.0,-999.0,-999,-99.99,,,-99.99,,2013-01-18 19:43:00,
2013-01-18 11:52:00,39.0,27.0,-100.00,WNW,300,10.0,-999.0,62,-99.99,,,-99.99,,2013-01-18 19:52:00,
2013-01-18 12:02:00,39.0,27.0,-100.00,WNW,300,10.0,-999.0,62,-99.99,,,-99.99,,2013-01-18 20:02:00,
2013-01-18 12:13:00,41.0,-99.9,-100.00,North,-999,-999.0,-999.0,-999,-99.99,,,-99.99,,2013-01-18 20:13:00,
2013-01-18 12:43:00,-999.0,-99.9,-100.00,WNW,290,2.0,-999.0,-999,-99.99,,,-99.99,,2013-01-18 20:43:00,
2013-01-18 12:53:00,41.0,-99.9,-100.00,North,-999,-999.0,-999.0,-999,-99.99,,,-99.99,,2013-01-18 20:53:00,
2013-01-18 13:03:00,-999.0,-99.9,-100.00,WNW,290,17.0,-999.0,-999,-99.99,,,-99.99,,2013-01-18 21:03:00,
2013-01-18 13:22:00,42.0,42.0,-100.00,North,-999,-999.0,-999.0,757,-99.99,,,-99.99,,2013-01-18 21:22:00,
2013-01-18 13:33:00,42.0,42.0,-100.00,North,-999,-999.0,-999.0,757,-99.99,,,-99.99,,2013-01-18 21:33:00,
2013-01-18 13:43:00,-999.0,-99.9,-100.00,West,280,43.0,-999.0,-999,-99.99,,,-99.99,,2013-01-18 21:43:00,
2013-01-18 13:52:00,42.0,26.0,-100.00,North,-999,-999.0,-999.0,53,-99.99,,,-99.99,,2013-01-18 21:52:00,
2013-01-18 14:02:00,44.0,28.0,-100.00,North,-999,-999.0,-999.0,53,-99.99,,,-99.99,,2013-01-18 22:02:00,
2013-01-18 14:23:00,46.0,-99.9,-100.00,North,-999,-999.0,-999.0,-999,-99.99,,,-99.99,,2013-01-18 22:23:00,
2013-01-18 14:43:00,46.0,-99.9,-100.00,North,-999,-999.0,-999.0,-999,-99.99,,,-99.99,,2013-01-18 22:43:00,
2013-01-18 14:52:00,45.0,25.0,-100.00,West,280,2.0,-999.0,44,-99.99,,,-99.99,,2013-01-18 22:52:00,
2013-01-18 15:02:00,46.0,27.0,-100.00,North,-999,-999.0,-999.0,48,-99.99,,,-99.99,,2013-01-18 23:02:00,
2013-01-18 15:23:00,-999.0,-99.9,-100.00,West,280,1.0,-999.0,-999,-99.99,,,-99.99,,2013-01-18 23:23:00,
2013-01-18 15:32:00,46.0,30.0,-100.00,North,-999,-999.0,-999.0,53,-99.99,,,-99.99,,2013-01-18 23:32:00,
2013-01-18 16:02:00,44.0,30.0,-100.00,North,-999,-999.0,-999.0,57,-99.99,,,-99.99,,2013-01-19 00:02:00,
2013-01-18 16:12:00,45.0,32.0,-100.00,North,-999,-999.0,-999.0,58,-99.99,,,-99.99,,2013-01-19 00:12:00,
2013-01-18 16:22:00,45.0,32.0,-100.00,North,-999,-999.0,-999.0,58,-99.99,,,-99.99,,2013-01-19 00:22:00,
2013-01-18 16:42:00,42.0,30.0,-100.00,North,-999,-999.0,-999.0,61,-99.99,,,-99.99,,2013-01-19 00:42:00,
2013-01-18 16:53:00,42.0,30.0,-100.00,North,-999,-999.0,-999.0,61,-99.99,,,-99.99,,2013-01-19 00:53:00,
2013-01-18 17:42:00,34.0,13.0,-100.00,North,-999,-999.0,-999.0,42,-99.99,,,-99.99,,2013-01-19 01:42:00,
2013-01-18 17:52:00,34.0,13.0,-100.00,North,-999,-999.0,-999.0,42,-99.99,,,-99.99,,2013-01-19 01:52:00,
2013-01-18 18:02:00,33.0,16.0,-100.00,North,-999,-999.0,-999.0,49,-99.99,,,-99.99,,2013-01-19 02:02:00,
2013-01-18 18:12:00,31.0,15.0,-100.00,North,-999,-999.0,-999.0,51,-99.99,,,-99.99,,2013-01-19 02:12:00,
2013-01-18 18:22:00,31.0,15.0,-100.00,North,-999,-999.0,-999.0,51,-99.99,,,-99.99,,2013-01-19 02:22:00,
2013-01-18 18:32:00,31.0,16.0,-100.00,North,-999,-999.0,-999.0,53,-99.99,,,-99.99,,2013-01-19 02:32:00,
2013-01-18 18:42:00,31.0,16.0,-100.00,North,-999,-999.0,-999.0,52,-99.99,,,-99.99,,2013-01-19 02:42:00,
2013-01-18 18:53:00,31.0,16.0,-100.00,North,-999,-999.0,-999.0,52,-99.99,,,-99.99,,2013-01-19 02:53:00,
2013-01-18 19:02:00,31.0,16.0,-100.00,North,-999,-999.0,-999.0,52,-99.99,,,-99.99,,2013-01-19 03:02:00,
2013-01-18 19:12:00,31.0,16.0,-100.00,North,-999,-999.0,-999.0,52,-99.99,,,-99.99,,2013-01-19 03:12:00,
2013-01-18 19:52:00,29.0,29.0,-100.00,North,-999,-999.0,-999.0,712,-99.99,,,-99.99,,2013-01-19 03:52:00,
2013-01-18 20:02:00,29.0,29.0,-100.00,North,-999,-999.0,-999.0,712,-99.99,,,-99.99,,2013-01-19 04:02:00,
2013-01-18 20:13:00,28.0,-99.9,-100.00,North,-999,-999.0,-999.0,-999,-99.99,,,-99.99,,2013-01-19 04:13:00,
2013-01-18 20:43:00,27.0,-99.9,-100.00,North,-999,-999.0,-999.0,-999,-99.99,,,-99.99,,2013-01-19 04:43:00,
2013-01-18 21:22:00,23.0,15.0,-100.00,North,-999,-999.0,-999.0,70,-99.99,,,-99.99,,2013-01-19 05:22:00,
2013-01-18 21:52:00,22.0,14.0,-100.00,North,-999,-999.0,-999.0,71,-99.99,,,-99.99,,2013-01-19 05:52:00,
2013-01-18 22:02:00,22.0,15.0,-100.00,North,-999,-999.0,-999.0,75,-99.99,,,-99.99,,2013-01-19 06:02:00,
2013-01-18 22:12:00,22.0,15.0,-100.00,North,-999,-999.0,-999.0,75,-99.99,,,-99.99,,2013-01-19 06:12:00,
2013-01-18 22:22:00,22.0,15.0,-100.00,North,-999,-999.0,-999.0,73,-99.99,,,-99.99,,2013-01-19 06:22:00,
2013-01-18 22:32:00,21.0,15.0,-100.00,North,-999,-999.0,-999.0,76,-99.99,,,-99.99,,2013-01-19 06:32:00,
2013-01-18 23:02:00,22.0,17.0,-100.00,North,-999,-999.0,-999.0,82,-99.99,,,-99.99,,2013-01-19 07:02:00,
2013-01-18 23:12:00,22.0,17.0,-100.00,North,-999,-999.0,-999.0,82,-99.99,,,-99.99,,2013-01-19 07:12:00,
2013-01-18 23:52:00,21.0,19.0,-100.00,North,-999,-999.0,-999.0,90,-99.99,,,-99.99,,2013-01-19 07:52:00,